sensor_id;sensor_type;location;lat;lon;timestamp;temperature;humidity
70246;SHT30;57637;49.272;8.590;2023-07-13T00:00:34;19.73;61.27
70246;SHT30;57637;49.272;8.590;2023-07-13T00:03:01;19.72;61.45
70246;SHT30;57637;49.272;8.590;2023-07-13T00:05:27;19.67;61.94
70246;SHT30;57637;49.272;8.590;2023-07-13T00:07:52;19.62;61.82
70246;SHT30;57637;49.272;8.590;2023-07-13T00:10:19;19.61;61.67
70246;SHT30;57637;49.272;8.590;2023-07-13T00:12:45;19.56;61.83
70246;SHT30;57637;49.272;8.590;2023-07-13T00:15:14;19.51;62.10
70246;SHT30;57637;49.272;8.590;2023-07-13T00:17:45;19.48;62.18
70246;SHT30;57637;49.272;8.590;2023-07-13T00:20:12;19.42;62.20
70246;SHT30;57637;49.272;8.590;2023-07-13T00:22:37;19.38;62.71
70246;SHT30;57637;49.272;8.590;2023-07-13T00:25:03;19.33;63.06
70246;SHT30;57637;49.272;8.590;2023-07-13T00:27:28;19.28;63.17
70246;SHT30;57637;49.272;8.590;2023-07-13T00:29:56;19.23;64.06
70246;SHT30;57637;49.272;8.590;2023-07-13T00:32:22;19.12;65.00
70246;SHT30;57637;49.272;8.590;2023-07-13T00:34:47;19.05;65.34
70246;SHT30;57637;49.272;8.590;2023-07-13T00:37:12;19.01;65.03
70246;SHT30;57637;49.272;8.590;2023-07-13T00:39:38;19.00;65.22
70246;SHT30;57637;49.272;8.590;2023-07-13T00:42:04;18.95;65.21
70246;SHT30;57637;49.272;8.590;2023-07-13T00:44:30;18.94;65.06
70246;SHT30;57637;49.272;8.590;2023-07-13T00:46:56;18.87;65.05
70246;SHT30;57637;49.272;8.590;2023-07-13T00:49:23;18.77;65.91
70246;SHT30;57637;49.272;8.590;2023-07-13T00:51:53;18.68;66.00
70246;SHT30;57637;49.272;8.590;2023-07-13T00:54:23;18.60;66.02
70246;SHT30;57637;49.272;8.590;2023-07-13T00:56:52;18.58;66.54
70246;SHT30;57637;49.272;8.590;2023-07-13T00:59:20;18.33;67.82
70246;SHT30;57637;49.272;8.590;2023-07-13T01:01:47;18.00;68.97
70246;SHT30;57637;49.272;8.590;2023-07-13T01:04:13;17.90;68.91
70246;SHT30;57637;49.272;8.590;2023-07-13T01:06:39;17.76;69.91
70246;SHT30;57637;49.272;8.590;2023-07-13T01:09:08;17.71;69.88
70246;SHT30;57637;49.272;8.590;2023-07-13T01:11:35;17.66;70.26
70246;SHT30;57637;49.272;8.590;2023-07-13T01:14:01;17.61;70.04
70246;SHT30;57637;49.272;8.590;2023-07-13T01:16:28;17.61;69.88
70246;SHT30;57637;49.272;8.590;2023-07-13T01:18:56;17.56;69.62
70246;SHT30;57637;49.272;8.590;2023-07-13T01:21:26;17.51;69.28
70246;SHT30;57637;49.272;8.590;2023-07-13T01:23:52;17.48;68.74
70246;SHT30;57637;49.272;8.590;2023-07-13T01:26:18;17.49;68.57
70246;SHT30;57637;49.272;8.590;2023-07-13T01:28:43;17.46;67.99
70246;SHT30;57637;49.272;8.590;2023-07-13T01:31:09;17.42;68.71
70246;SHT30;57637;49.272;8.590;2023-07-13T01:33:36;17.44;68.48
70246;SHT30;57637;49.272;8.590;2023-07-13T01:36:05;17.38;69.00
70246;SHT30;57637;49.272;8.590;2023-07-13T01:38:32;17.37;69.17
70246;SHT30;57637;49.272;8.590;2023-07-13T01:40:57;17.28;69.37
70246;SHT30;57637;49.272;8.590;2023-07-13T01:43:23;17.24;69.57
70246;SHT30;57637;49.272;8.590;2023-07-13T01:45:48;17.20;69.66
70246;SHT30;57637;49.272;8.590;2023-07-13T01:48:13;17.21;69.17
70246;SHT30;57637;49.272;8.590;2023-07-13T01:50:39;17.28;69.15
70246;SHT30;57637;49.272;8.590;2023-07-13T01:53:05;17.23;69.63
70246;SHT30;57637;49.272;8.590;2023-07-13T01:55:30;17.24;69.71
70246;SHT30;57637;49.272;8.590;2023-07-13T01:57:56;17.25;69.59
70246;SHT30;57637;49.272;8.590;2023-07-13T02:00:21;17.23;69.54
70246;SHT30;57637;49.272;8.590;2023-07-13T02:02:47;17.18;69.56
70246;SHT30;57637;49.272;8.590;2023-07-13T02:05:13;17.14;70.30
70246;SHT30;57637;49.272;8.590;2023-07-13T02:07:39;17.06;70.57
70246;SHT30;57637;49.272;8.590;2023-07-13T02:10:06;16.97;71.33
70246;SHT30;57637;49.272;8.590;2023-07-13T02:12:32;16.81;71.94
70246;SHT30;57637;49.272;8.590;2023-07-13T02:14:58;16.69;72.47
70246;SHT30;57637;49.272;8.590;2023-07-13T02:17:23;16.53;73.12
70246;SHT30;57637;49.272;8.590;2023-07-13T02:19:49;16.39;73.88
70246;SHT30;57637;49.272;8.590;2023-07-13T02:22:14;16.25;74.59
70246;SHT30;57637;49.272;8.590;2023-07-13T02:24:40;16.16;74.85
70246;SHT30;57637;49.272;8.590;2023-07-13T02:27:05;16.04;75.35
70246;SHT30;57637;49.272;8.590;2023-07-13T02:29:31;15.97;75.54
70246;SHT30;57637;49.272;8.590;2023-07-13T02:31:56;16.01;74.83
70246;SHT30;57637;49.272;8.590;2023-07-13T02:34:21;15.97;74.97
70246;SHT30;57637;49.272;8.590;2023-07-13T02:36:47;15.94;75.10
70246;SHT30;57637;49.272;8.590;2023-07-13T02:39:13;15.85;74.91
70246;SHT30;57637;49.272;8.590;2023-07-13T02:41:39;15.74;74.92
70246;SHT30;57637;49.272;8.590;2023-07-13T02:44:04;15.67;75.42
70246;SHT30;57637;49.272;8.590;2023-07-13T02:46:31;15.55;75.67
70246;SHT30;57637;49.272;8.590;2023-07-13T02:49:00;15.50;75.98
70246;SHT30;57637;49.272;8.590;2023-07-13T02:51:26;15.51;76.13
70246;SHT30;57637;49.272;8.590;2023-07-13T02:53:52;15.46;76.19
70246;SHT30;57637;49.272;8.590;2023-07-13T02:56:18;15.43;76.42
70246;SHT30;57637;49.272;8.590;2023-07-13T02:58:48;15.27;76.67
70246;SHT30;57637;49.272;8.590;2023-07-13T03:01:13;15.24;76.66
70246;SHT30;57637;49.272;8.590;2023-07-13T03:03:44;15.24;76.31
70246;SHT30;57637;49.272;8.590;2023-07-13T03:06:10;15.27;76.11
70246;SHT30;57637;49.272;8.590;2023-07-13T03:08:36;15.19;76.24
70246;SHT30;57637;49.272;8.590;2023-07-13T03:11:02;15.20;76.00
70246;SHT30;57637;49.272;8.590;2023-07-13T03:13:30;15.11;76.15
70246;SHT30;57637;49.272;8.590;2023-07-13T03:15:55;15.11;76.28
70246;SHT30;57637;49.272;8.590;2023-07-13T03:18:21;15.07;76.03
70246;SHT30;57637;49.272;8.590;2023-07-13T03:20:46;15.03;76.45
70246;SHT30;57637;49.272;8.590;2023-07-13T03:23:16;14.97;76.68
70246;SHT30;57637;49.272;8.590;2023-07-13T03:25:41;14.99;76.86
70246;SHT30;57637;49.272;8.590;2023-07-13T03:28:06;14.99;77.00
70246;SHT30;57637;49.272;8.590;2023-07-13T03:30:32;14.92;77.47
70246;SHT30;57637;49.272;8.590;2023-07-13T03:32:57;14.90;77.61
70246;SHT30;57637;49.272;8.590;2023-07-13T03:35:22;14.93;77.28
70246;SHT30;57637;49.272;8.590;2023-07-13T03:37:48;14.99;76.65
70246;SHT30;57637;49.272;8.590;2023-07-13T03:40:13;14.99;77.28
70246;SHT30;57637;49.272;8.590;2023-07-13T03:42:39;15.03;77.64
70246;SHT30;57637;49.272;8.590;2023-07-13T03:45:04;15.04;77.54
70246;SHT30;57637;49.272;8.590;2023-07-13T03:47:30;15.06;77.66
70246;SHT30;57637;49.272;8.590;2023-07-13T03:49:55;15.16;77.40
70246;SHT30;57637;49.272;8.590;2023-07-13T03:52:21;15.26;77.29
70246;SHT30;57637;49.272;8.590;2023-07-13T03:54:46;15.43;76.84
70246;SHT30;57637;49.272;8.590;2023-07-13T03:57:12;15.74;76.48
70246;SHT30;57637;49.272;8.590;2023-07-13T03:59:37;16.08;75.36
70246;SHT30;57637;49.272;8.590;2023-07-13T04:02:02;16.43;74.35
70246;SHT30;57637;49.272;8.590;2023-07-13T04:04:29;16.55;73.73
70246;SHT30;57637;49.272;8.590;2023-07-13T04:06:55;17.02;72.38
70246;SHT30;57637;49.272;8.590;2023-07-13T04:09:22;17.34;71.35
70246;SHT30;57637;49.272;8.590;2023-07-13T04:11:48;17.62;70.98
70246;SHT30;57637;49.272;8.590;2023-07-13T04:14:13;17.62;69.97
70246;SHT30;57637;49.272;8.590;2023-07-13T04:16:38;17.38;70.92
70246;SHT30;57637;49.272;8.590;2023-07-13T04:19:04;17.11;71.57
70246;SHT30;57637;49.272;8.590;2023-07-13T04:21:30;16.80;72.75
70246;SHT30;57637;49.272;8.590;2023-07-13T04:23:56;16.57;73.50
70246;SHT30;57637;49.272;8.590;2023-07-13T04:26:21;16.59;73.86
70246;SHT30;57637;49.272;8.590;2023-07-13T04:28:47;16.59;73.45
70246;SHT30;57637;49.272;8.590;2023-07-13T04:31:14;16.87;72.92
70246;SHT30;57637;49.272;8.590;2023-07-13T04:33:40;17.21;72.38
70246;SHT30;57637;49.272;8.590;2023-07-13T04:36:05;17.66;70.60
70246;SHT30;57637;49.272;8.590;2023-07-13T04:38:31;17.59;70.64
70246;SHT30;57637;49.272;8.590;2023-07-13T04:41:02;17.45;70.89
70246;SHT30;57637;49.272;8.590;2023-07-13T04:43:29;17.48;71.51
70246;SHT30;57637;49.272;8.590;2023-07-13T04:45:55;17.81;70.28
70246;SHT30;57637;49.272;8.590;2023-07-13T04:48:21;17.82;70.16
70246;SHT30;57637;49.272;8.590;2023-07-13T04:50:47;17.95;70.37
70246;SHT30;57637;49.272;8.590;2023-07-13T04:53:13;18.43;69.28
70246;SHT30;57637;49.272;8.590;2023-07-13T04:55:38;18.67;68.52
70246;SHT30;57637;49.272;8.590;2023-07-13T04:58:04;18.95;67.54
70246;SHT30;57637;49.272;8.590;2023-07-13T05:00:30;19.05;67.54
70246;SHT30;57637;49.272;8.590;2023-07-13T05:02:56;19.48;66.15
70246;SHT30;57637;49.272;8.590;2023-07-13T05:05:23;19.93;64.77
70246;SHT30;57637;49.272;8.590;2023-07-13T05:07:49;20.35;63.50
70246;SHT30;57637;49.272;8.590;2023-07-13T05:10:15;20.75;61.92
70246;SHT30;57637;49.272;8.590;2023-07-13T05:12:41;20.92;61.71
70246;SHT30;57637;49.272;8.590;2023-07-13T05:15:06;20.82;62.94
70246;SHT30;57637;49.272;8.590;2023-07-13T05:17:32;21.03;62.32
70246;SHT30;57637;49.272;8.590;2023-07-13T05:19:58;21.56;60.71
70246;SHT30;57637;49.272;8.590;2023-07-13T05:22:23;22.00;59.38
70246;SHT30;57637;49.272;8.590;2023-07-13T05:24:48;22.52;58.15
70246;SHT30;57637;49.272;8.590;2023-07-13T05:27:14;22.95;56.85
70246;SHT30;57637;49.272;8.590;2023-07-13T05:29:39;23.00;56.27
70246;SHT30;57637;49.272;8.590;2023-07-13T05:32:05;22.73;57.29
70246;SHT30;57637;49.272;8.590;2023-07-13T05:34:30;22.69;57.92
70246;SHT30;57637;49.272;8.590;2023-07-13T05:36:56;22.77;57.66
70246;SHT30;57637;49.272;8.590;2023-07-13T05:39:21;23.09;57.04
70246;SHT30;57637;49.272;8.590;2023-07-13T05:41:48;23.06;56.75
70246;SHT30;57637;49.272;8.590;2023-07-13T05:44:13;23.00;56.94
70246;SHT30;57637;49.272;8.590;2023-07-13T05:46:39;23.46;55.91
70246;SHT30;57637;49.272;8.590;2023-07-13T05:49:04;23.46;55.48
70246;SHT30;57637;49.272;8.590;2023-07-13T05:51:29;23.86;54.18
70246;SHT30;57637;49.272;8.590;2023-07-13T05:53:55;24.30;52.86
70246;SHT30;57637;49.272;8.590;2023-07-13T05:56:20;24.62;51.48
70246;SHT30;57637;49.272;8.590;2023-07-13T05:58:47;24.70;51.35
70246;SHT30;57637;49.272;8.590;2023-07-13T06:01:13;25.13;49.96
70246;SHT30;57637;49.272;8.590;2023-07-13T06:03:40;25.24;49.40
70246;SHT30;57637;49.272;8.590;2023-07-13T06:06:05;25.47;48.69
70246;SHT30;57637;49.272;8.590;2023-07-13T06:08:32;25.45;48.18
70246;SHT30;57637;49.272;8.590;2023-07-13T06:11:02;25.54;48.56
70246;SHT30;57637;49.272;8.590;2023-07-13T06:13:42;25.82;47.45
70246;SHT30;57637;49.272;8.590;2023-07-13T06:16:08;24.11;49.27
70246;SHT30;57637;49.272;8.590;2023-07-13T06:18:34;24.40;48.82
70246;SHT30;57637;49.272;8.590;2023-07-13T06:21:04;24.35;48.97
70246;SHT30;57637;49.272;8.590;2023-07-13T06:23:31;24.19;49.53
70246;SHT30;57637;49.272;8.590;2023-07-13T06:25:56;24.22;49.96
70246;SHT30;57637;49.272;8.590;2023-07-13T06:28:22;24.26;49.73
70246;SHT30;57637;49.272;8.590;2023-07-13T06:30:47;24.21;49.52
70246;SHT30;57637;49.272;8.590;2023-07-13T06:33:13;24.18;49.82
70246;SHT30;57637;49.272;8.590;2023-07-13T06:35:38;24.62;49.35
70246;SHT30;57637;49.272;8.590;2023-07-13T06:38:03;24.42;48.00
70246;SHT30;57637;49.272;8.590;2023-07-13T06:40:30;24.04;49.20
70246;SHT30;57637;49.272;8.590;2023-07-13T06:42:56;24.80;48.72
70246;SHT30;57637;49.272;8.590;2023-07-13T06:45:21;25.28;47.38
70246;SHT30;57637;49.272;8.590;2023-07-13T06:47:47;25.62;45.71
70246;SHT30;57637;49.272;8.590;2023-07-13T06:50:12;25.06;46.90
70246;SHT30;57637;49.272;8.590;2023-07-13T06:52:38;23.82;48.65
70246;SHT30;57637;49.272;8.590;2023-07-13T06:55:03;23.33;50.46
70246;SHT30;57637;49.272;8.590;2023-07-13T06:57:29;23.68;51.59
70246;SHT30;57637;49.272;8.590;2023-07-13T06:59:54;23.57;50.74
70246;SHT30;57637;49.272;8.590;2023-07-13T07:02:19;23.94;50.52
70246;SHT30;57637;49.272;8.590;2023-07-13T07:04:45;23.84;49.81
70246;SHT30;57637;49.272;8.590;2023-07-13T07:07:10;23.78;50.82
70246;SHT30;57637;49.272;8.590;2023-07-13T07:09:35;23.91;49.28
70246;SHT30;57637;49.272;8.590;2023-07-13T07:12:02;23.06;51.23
70246;SHT30;57637;49.272;8.590;2023-07-13T07:14:27;23.33;51.74
70246;SHT30;57637;49.272;8.590;2023-07-13T07:16:53;23.09;49.85
70246;SHT30;57637;49.272;8.590;2023-07-13T07:19:18;22.71;51.46
70246;SHT30;57637;49.272;8.590;2023-07-13T07:21:43;22.88;50.45
70246;SHT30;57637;49.272;8.590;2023-07-13T07:24:09;23.49;49.61
70246;SHT30;57637;49.272;8.590;2023-07-13T07:26:34;24.36;47.43
70246;SHT30;57637;49.272;8.590;2023-07-13T07:28:59;23.91;47.69
70246;SHT30;57637;49.272;8.590;2023-07-13T07:31:25;23.74;48.30
70246;SHT30;57637;49.272;8.590;2023-07-13T07:33:50;24.60;45.88
70246;SHT30;57637;49.272;8.590;2023-07-13T07:36:16;23.71;48.26
70246;SHT30;57637;49.272;8.590;2023-07-13T07:38:42;23.63;48.33
70246;SHT30;57637;49.272;8.590;2023-07-13T07:41:08;23.24;49.29
70246;SHT30;57637;49.272;8.590;2023-07-13T07:43:34;24.08;47.25
70246;SHT30;57637;49.272;8.590;2023-07-13T07:45:59;23.36;47.11
70246;SHT30;57637;49.272;8.590;2023-07-13T07:48:25;24.29;45.88
70246;SHT30;57637;49.272;8.590;2023-07-13T07:50:50;23.95;46.91
70246;SHT30;57637;49.272;8.590;2023-07-13T07:53:16;24.14;46.33
70246;SHT30;57637;49.272;8.590;2023-07-13T07:55:42;24.63;45.90
70246;SHT30;57637;49.272;8.590;2023-07-13T07:58:08;25.17;45.73
70246;SHT30;57637;49.272;8.590;2023-07-13T08:00:35;25.20;44.78
70246;SHT30;57637;49.272;8.590;2023-07-13T08:03:01;24.88;45.08
70246;SHT30;57637;49.272;8.590;2023-07-13T08:05:26;24.05;45.61
70246;SHT30;57637;49.272;8.590;2023-07-13T08:07:52;23.84;44.39
70246;SHT30;57637;49.272;8.590;2023-07-13T08:10:17;24.22;44.69
70246;SHT30;57637;49.272;8.590;2023-07-13T08:12:43;25.06;43.87
70246;SHT30;57637;49.272;8.590;2023-07-13T08:15:10;25.67;42.79
70246;SHT30;57637;49.272;8.590;2023-07-13T08:17:37;25.91;42.58
70246;SHT30;57637;49.272;8.590;2023-07-13T08:20:02;25.85;42.32
70246;SHT30;57637;49.272;8.590;2023-07-13T08:22:29;25.78;42.34
70246;SHT30;57637;49.272;8.590;2023-07-13T08:24:54;25.86;42.51
70246;SHT30;57637;49.272;8.590;2023-07-13T08:27:23;26.26;42.38
70246;SHT30;57637;49.272;8.590;2023-07-13T08:29:49;24.90;44.14
70246;SHT30;57637;49.272;8.590;2023-07-13T08:32:16;25.68;43.55
70246;SHT30;57637;49.272;8.590;2023-07-13T08:34:43;26.33;42.80
70246;SHT30;57637;49.272;8.590;2023-07-13T08:37:09;26.60;42.07
70246;SHT30;57637;49.272;8.590;2023-07-13T08:39:34;26.63;41.60
70246;SHT30;57637;49.272;8.590;2023-07-13T08:42:05;26.86;41.80
70246;SHT30;57637;49.272;8.590;2023-07-13T08:44:41;26.90;41.59
70246;SHT30;57637;49.272;8.590;2023-07-13T08:47:11;27.00;41.45
70246;SHT30;57637;49.272;8.590;2023-07-13T08:49:40;27.25;41.32
70246;SHT30;57637;49.272;8.590;2023-07-13T08:52:09;27.42;41.54
70246;SHT30;57637;49.272;8.590;2023-07-13T08:54:44;27.27;41.65
70246;SHT30;57637;49.272;8.590;2023-07-13T08:57:18;27.14;40.68
70246;SHT30;57637;49.272;8.590;2023-07-13T08:59:46;27.08;41.57
70246;SHT30;57637;49.272;8.590;2023-07-13T09:04:59;27.03;40.63
70246;SHT30;57637;49.272;8.590;2023-07-13T09:10:44;25.98;42.69
70246;SHT30;57637;49.272;8.590;2023-07-13T09:15:52;26.86;41.90
70246;SHT30;57637;49.272;8.590;2023-07-13T09:18:32;27.00;41.11
70246;SHT30;57637;49.272;8.590;2023-07-13T09:21:00;26.87;41.37
70246;SHT30;57637;49.272;8.590;2023-07-13T09:23:29;27.24;41.59
70246;SHT30;57637;49.272;8.590;2023-07-13T09:25:59;27.20;39.92
70246;SHT30;57637;49.272;8.590;2023-07-13T09:28:36;27.05;41.50
70246;SHT30;57637;49.272;8.590;2023-07-13T09:31:11;27.05;41.78
70246;SHT30;57637;49.272;8.590;2023-07-13T09:33:40;27.61;40.54
70246;SHT30;57637;49.272;8.590;2023-07-13T09:38:43;28.27;39.43
70246;SHT30;57637;49.272;8.590;2023-07-13T09:44:00;28.06;39.28
70246;SHT30;57637;49.272;8.590;2023-07-13T09:46:26;27.70;39.40
70246;SHT30;57637;49.272;8.590;2023-07-13T09:48:51;27.24;38.65
70246;SHT30;57637;49.272;8.590;2023-07-13T09:51:17;27.59;39.79
70246;SHT30;57637;49.272;8.590;2023-07-13T09:53:43;26.90;40.30
70246;SHT30;57637;49.272;8.590;2023-07-13T09:56:26;27.34;40.89
70246;SHT30;57637;49.272;8.590;2023-07-13T09:58:52;27.83;39.45
70246;SHT30;57637;49.272;8.590;2023-07-13T10:01:31;28.50;39.12
70246;SHT30;57637;49.272;8.590;2023-07-13T10:03:58;28.43;38.41
70246;SHT30;57637;49.272;8.590;2023-07-13T10:06:24;28.24;39.03
70246;SHT30;57637;49.272;8.590;2023-07-13T10:08:51;27.32;40.59
70246;SHT30;57637;49.272;8.590;2023-07-13T10:16:20;27.54;40.25
70246;SHT30;57637;49.272;8.590;2023-07-13T10:18:50;27.65;40.05
70246;SHT30;57637;49.272;8.590;2023-07-13T10:21:21;27.28;39.63
70246;SHT30;57637;49.272;8.590;2023-07-13T10:23:55;27.31;40.31
70246;SHT30;57637;49.272;8.590;2023-07-13T10:26:31;27.65;40.54
70246;SHT30;57637;49.272;8.590;2023-07-13T10:29:01;28.03;40.16
70246;SHT30;57637;49.272;8.590;2023-07-13T10:31:32;28.24;39.71
70246;SHT30;57637;49.272;8.590;2023-07-13T10:33:59;28.26;39.16
70246;SHT30;57637;49.272;8.590;2023-07-13T10:39:04;28.33;38.57
70246;SHT30;57637;49.272;8.590;2023-07-13T10:41:31;28.23;39.24
70246;SHT30;57637;49.272;8.590;2023-07-13T10:44:01;28.58;38.13
70246;SHT30;57637;49.272;8.590;2023-07-13T10:46:29;28.84;37.94
70246;SHT30;57637;49.272;8.590;2023-07-13T10:48:59;28.88;37.48
70246;SHT30;57637;49.272;8.590;2023-07-13T10:51:29;28.91;37.49
70246;SHT30;57637;49.272;8.590;2023-07-13T10:54:11;28.68;37.60
70246;SHT30;57637;49.272;8.590;2023-07-13T10:56:47;28.23;36.62
70246;SHT30;57637;49.272;8.590;2023-07-13T10:59:15;27.69;36.60
70246;SHT30;57637;49.272;8.590;2023-07-13T11:01:54;27.49;37.46
70246;SHT30;57637;49.272;8.590;2023-07-13T11:04:22;27.88;37.66
70246;SHT30;57637;49.272;8.590;2023-07-13T11:06:50;27.79;37.89
70246;SHT30;57637;49.272;8.590;2023-07-13T11:12:08;28.50;37.70
70246;SHT30;57637;49.272;8.590;2023-07-13T11:28:04;28.40;36.92
70246;SHT30;57637;49.272;8.590;2023-07-13T11:30:35;28.00;36.65
70246;SHT30;57637;49.272;8.590;2023-07-13T11:33:22;27.93;37.57
70246;SHT30;57637;49.272;8.590;2023-07-13T11:35:51;28.43;36.90
70246;SHT30;57637;49.272;8.590;2023-07-13T11:38:18;28.95;36.21
70246;SHT30;57637;49.272;8.590;2023-07-13T11:40:46;29.16;35.33
70246;SHT30;57637;49.272;8.590;2023-07-13T11:43:14;28.13;36.09
70246;SHT30;57637;49.272;8.590;2023-07-13T11:45:41;27.54;37.42
70246;SHT30;57637;49.272;8.590;2023-07-13T11:48:20;27.51;37.03
70246;SHT30;57637;49.272;8.590;2023-07-13T11:50:58;26.98;37.57
70246;SHT30;57637;49.272;8.590;2023-07-13T11:53:31;26.76;38.20
70246;SHT30;57637;49.272;8.590;2023-07-13T11:56:03;26.83;37.95
70246;SHT30;57637;49.272;8.590;2023-07-13T11:58:30;26.36;38.59
70246;SHT30;57637;49.272;8.590;2023-07-13T12:00:57;26.18;38.18
70246;SHT30;57637;49.272;8.590;2023-07-13T12:03:24;26.15;38.67
70246;SHT30;57637;49.272;8.590;2023-07-13T12:05:57;25.92;39.02
70246;SHT30;57637;49.272;8.590;2023-07-13T12:08:24;25.99;38.61
70246;SHT30;57637;49.272;8.590;2023-07-13T12:10:55;25.88;39.57
70246;SHT30;57637;49.272;8.590;2023-07-13T12:13:22;26.18;39.01
70246;SHT30;57637;49.272;8.590;2023-07-13T12:15:47;26.60;39.20
70246;SHT30;57637;49.272;8.590;2023-07-13T12:18:14;27.24;38.60
70246;SHT30;57637;49.272;8.590;2023-07-13T12:20:43;27.78;37.87
70246;SHT30;57637;49.272;8.590;2023-07-13T12:25:59;28.00;37.26
70246;SHT30;57637;49.272;8.590;2023-07-13T12:31:03;27.58;37.27
70246;SHT30;57637;49.272;8.590;2023-07-13T12:33:32;27.95;37.00
70246;SHT30;57637;49.272;8.590;2023-07-13T12:36:02;28.07;36.46
70246;SHT30;57637;49.272;8.590;2023-07-13T12:38:31;27.52;36.63
70246;SHT30;57637;49.272;8.590;2023-07-13T12:40:57;27.42;37.02
70246;SHT30;57637;49.272;8.590;2023-07-13T12:43:24;27.75;36.85
70246;SHT30;57637;49.272;8.590;2023-07-13T12:46:01;28.06;36.08
70246;SHT30;57637;49.272;8.590;2023-07-13T12:48:28;28.33;35.83
70246;SHT30;57637;49.272;8.590;2023-07-13T12:50:54;28.26;35.48
70246;SHT30;57637;49.272;8.590;2023-07-13T12:53:22;28.18;35.50
70246;SHT30;57637;49.272;8.590;2023-07-13T12:55:55;28.28;36.28
70246;SHT30;57637;49.272;8.590;2023-07-13T12:58:26;27.89;35.80
70246;SHT30;57637;49.272;8.590;2023-07-13T13:01:03;28.03;35.44
70246;SHT30;57637;49.272;8.590;2023-07-13T13:08:40;28.27;34.71
70246;SHT30;57637;49.272;8.590;2023-07-13T13:11:08;28.40;35.75
70246;SHT30;57637;49.272;8.590;2023-07-13T13:13:34;28.24;35.57
70246;SHT30;57637;49.272;8.590;2023-07-13T13:16:12;28.79;33.66
70246;SHT30;57637;49.272;8.590;2023-07-13T13:18:44;28.30;34.68
70246;SHT30;57637;49.272;8.590;2023-07-13T13:21:10;28.56;34.83
70246;SHT30;57637;49.272;8.590;2023-07-13T13:23:36;28.72;34.55
70246;SHT30;57637;49.272;8.590;2023-07-13T13:26:02;28.13;35.22
70246;SHT30;57637;49.272;8.590;2023-07-13T13:28:28;27.93;35.30
70246;SHT30;57637;49.272;8.590;2023-07-13T13:30:54;27.67;36.25
70246;SHT30;57637;49.272;8.590;2023-07-13T13:33:20;27.88;35.79
70246;SHT30;57637;49.272;8.590;2023-07-13T13:35:47;27.72;36.40
70246;SHT30;57637;49.272;8.590;2023-07-13T13:38:13;27.58;36.47
70246;SHT30;57637;49.272;8.590;2023-07-13T13:40:41;27.56;36.70
70246;SHT30;57637;49.272;8.590;2023-07-13T13:43:24;27.72;35.91
70246;SHT30;57637;49.272;8.590;2023-07-13T13:45:55;28.00;35.78
70246;SHT30;57637;49.272;8.590;2023-07-13T13:48:32;28.24;35.31
70246;SHT30;57637;49.272;8.590;2023-07-13T13:50:59;28.44;34.81
70246;SHT30;57637;49.272;8.590;2023-07-13T13:53:26;27.78;35.46
70246;SHT30;57637;49.272;8.590;2023-07-13T13:55:52;28.44;34.99
70246;SHT30;57637;49.272;8.590;2023-07-13T13:58:20;27.39;35.16
70246;SHT30;57637;49.272;8.590;2023-07-13T14:00:46;27.15;35.98
70246;SHT30;57637;49.272;8.590;2023-07-13T14:03:18;27.18;36.54
70246;SHT30;57637;49.272;8.590;2023-07-13T14:05:45;27.01;36.80
70246;SHT30;57637;49.272;8.590;2023-07-13T14:08:12;27.27;36.39
70246;SHT30;57637;49.272;8.590;2023-07-13T14:10:40;27.65;36.26
70246;SHT30;57637;49.272;8.590;2023-07-13T14:13:07;27.54;35.87
70246;SHT30;57637;49.272;8.590;2023-07-13T14:15:43;27.73;35.50
70246;SHT30;57637;49.272;8.590;2023-07-13T14:18:10;26.91;36.52
70246;SHT30;57637;49.272;8.590;2023-07-13T14:20:35;27.14;36.38
70246;SHT30;57637;49.272;8.590;2023-07-13T14:23:00;27.04;37.19
70246;SHT30;57637;49.272;8.590;2023-07-13T14:25:26;27.04;36.85
70246;SHT30;57637;49.272;8.590;2023-07-13T14:27:53;26.77;37.03
70246;SHT30;57637;49.272;8.590;2023-07-13T14:30:24;26.93;37.66
70246;SHT30;57637;49.272;8.590;2023-07-13T14:32:50;27.25;37.36
70246;SHT30;57637;49.272;8.590;2023-07-13T14:35:17;27.73;36.91
70246;SHT30;57637;49.272;8.590;2023-07-13T14:37:45;28.24;35.63
70246;SHT30;57637;49.272;8.590;2023-07-13T14:40:32;28.33;35.58
70246;SHT30;57637;49.272;8.590;2023-07-13T14:42:58;28.12;35.38
70246;SHT30;57637;49.272;8.590;2023-07-13T14:45:23;27.76;36.05
70246;SHT30;57637;49.272;8.590;2023-07-13T14:47:50;28.03;35.85
70246;SHT30;57637;49.272;8.590;2023-07-13T14:50:17;27.70;36.30
70246;SHT30;57637;49.272;8.590;2023-07-13T14:52:45;27.62;36.65
70246;SHT30;57637;49.272;8.590;2023-07-13T14:55:13;27.67;36.69
70246;SHT30;57637;49.272;8.590;2023-07-13T14:57:40;27.28;36.84
70246;SHT30;57637;49.272;8.590;2023-07-13T15:00:16;27.73;36.81
70246;SHT30;57637;49.272;8.590;2023-07-13T15:02:44;28.26;36.38
70246;SHT30;57637;49.272;8.590;2023-07-13T15:05:14;28.23;35.87
70246;SHT30;57637;49.272;8.590;2023-07-13T15:07:46;27.90;35.94
70246;SHT30;57637;49.272;8.590;2023-07-13T15:10:19;28.23;35.87
70246;SHT30;57637;49.272;8.590;2023-07-13T15:12:46;28.27;36.08
70246;SHT30;57637;49.272;8.590;2023-07-13T15:15:11;28.14;36.39
70246;SHT30;57637;49.272;8.590;2023-07-13T15:17:39;28.51;36.40
70246;SHT30;57637;49.272;8.590;2023-07-13T15:20:11;28.16;36.20
70246;SHT30;57637;49.272;8.590;2023-07-13T15:22:50;27.72;36.85
70246;SHT30;57637;49.272;8.590;2023-07-13T15:25:17;27.56;37.22
70246;SHT30;57637;49.272;8.590;2023-07-13T15:27:44;27.30;37.65
70246;SHT30;57637;49.272;8.590;2023-07-13T15:30:10;27.25;37.34
70246;SHT30;57637;49.272;8.590;2023-07-13T15:32:36;26.90;37.62
70246;SHT30;57637;49.272;8.590;2023-07-13T15:35:02;27.46;37.24
70246;SHT30;57637;49.272;8.590;2023-07-13T15:37:27;27.49;37.02
70246;SHT30;57637;49.272;8.590;2023-07-13T15:39:53;27.86;36.07
70246;SHT30;57637;49.272;8.590;2023-07-13T15:42:19;27.81;35.72
70246;SHT30;57637;49.272;8.590;2023-07-13T15:44:46;26.97;37.00
70246;SHT30;57637;49.272;8.590;2023-07-13T15:47:12;27.00;37.44
70246;SHT30;57637;49.272;8.590;2023-07-13T15:49:39;27.22;37.17
70246;SHT30;57637;49.272;8.590;2023-07-13T15:52:10;27.34;36.99
70246;SHT30;57637;49.272;8.590;2023-07-13T15:54:44;27.16;37.09
70246;SHT30;57637;49.272;8.590;2023-07-13T15:57:09;27.41;36.84
70246;SHT30;57637;49.272;8.590;2023-07-13T15:59:37;27.56;36.99
70246;SHT30;57637;49.272;8.590;2023-07-13T16:02:23;27.20;37.02
70246;SHT30;57637;49.272;8.590;2023-07-13T16:04:48;27.08;37.48
70246;SHT30;57637;49.272;8.590;2023-07-13T16:07:14;26.61;37.60
70246;SHT30;57637;49.272;8.590;2023-07-13T16:09:44;26.60;37.80
70246;SHT30;57637;49.272;8.590;2023-07-13T16:12:12;26.50;37.01
70246;SHT30;57637;49.272;8.590;2023-07-13T16:14:38;26.23;37.67
70246;SHT30;57637;49.272;8.590;2023-07-13T16:17:04;25.92;38.15
70246;SHT30;57637;49.272;8.590;2023-07-13T16:19:31;26.05;38.29